Lexington, NE

7:41 AM CDT on August 04, 2015 (GMT -0500)
Kelly | | Change Station
CLOSE
Current Station
Airport
Location: Lexington,
Elevation: 2411 ft
Nearby Weather Stations

Elev 2411 ft 40.79 °N, 99.78 °W | Updated 6 minutes ago

Overcast
Overcast
68 °F
Feels Like 68 °F
N
10
Wind Variable Wind from East

Today
High -- | Low -- °F
--% Chance of Precip.
Yesterday
High -- | Low -- °F
Precip. -- in
6:38 AM 8:51 PM
Waning Gibbous, 78% visible
Pressure 29.99 in
Visibility 1.8 miles
Clouds Overcast 200 ft
Dew Point 67 °F
Humidity 96%
Rainfall 0.00 in
Snow Depth Not available.
UV 0 out of 12
Pollen 7.90 out of 12
Air Quality Not available.
Flu Activity Not available.
METAR KLXN 041235Z AUTO 08009KT 1 3/4SM BR OVC002 20/20 A2999 RMK AO2 T02020195

More Conditions Fewer Conditions

Pressure 29.99 in
Visibility 1.8 miles
Clouds Overcast 200 ft
Dew Point 67 °F
Humidity 96%
Rainfall 0.00 in
Snow Depth Not available.
UV 0 out of 12
Pollen 7.90 out of 12
Air Quality Not available.
Flu Activity Not available.
METAR KLXN 041235Z AUTO 08009KT 1 3/4SM BR OVC002 20/20 A2999 RMK AO2 T02020195

More Conditions Fewer Conditions

Nowcast | as of 6:05 am CDT on August 4, 2015

Patchy fog has developed across the area early this morning...and will remain possible through the mid morning hours. Those most locations will have visibilities over one mile...some areas will have visibilities drop down to near one half of a mile. Those traveling this morning should use caution and be prepared for quickly changing visibilities.

×

10-Day Weather Forecast

×

Almanac

Astronomy

Aug. 04, 2015 Rise Set
Actual Time
Civil Twilight
Nautical Twilight
Astronomical Twilight
Moon
Length of Visible Light
Length of Day
Tomorrow will be .
, % of the Moon is Illuminated

Today's Extremes

State Highs State Lows

Community

WunderPhotos

Upload Photos

1,843,913 photos uploaded!

WunderBlogs® & News

Nearby

Air Quality

  Air Quality AQ Index Pollutant
Not available.

Snow Depth

Station Depth Elevation

Earthquake Activity

City Distance Mag. Time & Date
Minimum magnitude displayed is 2.5.

Coastal Water Temperatures

Place Temperature

Stations

Nearby Weather Stations

Station Location Temp. Windchill Dew Point Humidity Wind Precip. Elev Updated Type